Terminal Aerodrome Forecast
Issued by NWS

Home | Current Version | Previous Version | Graphics & Text | Print | Product List | Glossary On
Versions: 1 2 3 4 5 6 7 8 9 10 11 12 13 14 15 16
939
FTUS45 KGGW 200525
TAFSDY
TAF
KSDY 200525Z 2006/2106 31006KT 3SM BR SCT005
     FM200800 27007KT 1/4SM FG BKN020
     FM201500 25009KT 1SM BR SCT010
     FM201600 25010KT P6SM SCT050=

USA.gov is the U.S. government's official web portal to all federal, state and local government web resources and services.